Tabella Stazioni Meteo Lazio



Provincia di Frosinone
ID Località Altitudine Data Temp (°C) Temp Min (°C) Temp Max (°C) Hum (%) Pressure (hPa) Wind (Km/h) Wind Dir Wind Gust (Km/h) Wind Gust Max (Km/h) Rain (mm) Dewpoint (°C)
ILAZIOPI2 Stazione meteo Pico – Colleponte 114 m s.l.m. 2019-10-16 07:24:32 13.9 13.9 16.7 95 1016.02 0.0 O 0.0 6.4 0.30 13.1
Stazione meteo Alvito – Colle Santa Lucia 465 m s.l.m.
ILAZIOPO8 Stazione meteo Pontecorvo – Via Babuino 94 m s.l.m. 2019-10-16 07:24:48 15.3 15.3 16.8 94 1016.70 1.6 OSO 4.8 9.7 0.00 14.4
ILAZIOLA19 Stazione meteo Anagni – Strada Vic.le Collacciano 240 m s.l.m. 2019-10-16 07:24:54 16.0 16.0 17.0 85 1013.00 0.0 N 0.0 0.0 0.00 14.0
Provincia di Latina
ID Località Altitudine Data Temp (°C) Temp Min (°C) Temp Max (°C) Hum (%) Pressure (hPa) Wind (Km/h) Wind Dir Wind Gust (Km/h) Wind Gust Max (Km/h) Rain (mm) Dewpoint (°C)
ICISTE1 Stazione meteo Cisterna – Centro Storico 81 m s.l.m. 2019-10-16 07:24:57 14.0 13.9 17.5 96 1017.03 0.0 SSW 0.0 3.5 0.00 13.4
Stazione meteo Cisterna – Indinvest LT 42 m s.l.m.
ICISTE3 Stazione meteo Cisterna – San Valentino 93 m s.l.m. 2019-10-16 07:25:08 13.2 13.2 17.4 97 1031.80 0.0 W 0.0 9.7 0.00 12.7
ILATIN1 Stazione meteo Latina – Borgo Montello 31 m s.l.m. 2019-10-16 07:25:08 0.0 19.0 19.0 0 1020.80 0.0 N 0.0 7.2 0.00 0.0
ILAZIOLA8 Stazione meteo Latina – Strada Quartaccio 13 m s.l.m. 2019-10-16 07:24:00 12.9 12.9 17.8 0 1014.80 0.0 WNW 0.0 4.8 0.00 -100000.0
ISEZZE3 Stazione meteo Sezze – Via Piagge Marine 310 m s.l.m. 2019-10-16 07:24:00 14.5 14.5 16.4 91 1014.70 4.8 NNE 6.4 11.3 0.20 13.0
Stazione meteo Rocca Massima – Flying in the sky 723 m s.l.m.
Provincia di Roma
ID Località Altitudine Data Temp (°C) Temp Min (°C) Temp Max (°C) Hum (%) Pressure (hPa) Wind (Km/h) Wind Dir Wind Gust (Km/h) Wind Gust Max (Km/h) Rain (mm) Dewpoint (°C)
IROCCA2 Stazione meteo Rocca di Papa – Pratoni del Vivaro 528 m s.l.m. 2019-10-16 07:24:22 6.7 6.7 14.1 99 1014.90 0.0 S 0.0 1.8 0.25 6.5
IVELLE13 Stazione meteo Velletri – Crocefissi 227m 227 m s.l.m. 2019-10-16 07:24:00 10.5 10.5 16.4 99 1025.40 0.0 SW 0.0 3.6 0.00 10.3
IVELLE10 Stazione meteo Velletri – Crocefissi 259m 259 m s.l.m. 2019-10-16 07:25:08 12.7 12.7 16.7 99 1015.30 0.0 W 2.5 6.1 0.00 12.5
IVELLE11 Stazione meteo Velletri – 5 Archi 188 m s.l.m. 2019-10-16 07:20:00 12.3 12.3 17.0 95 1015.40 0.6 NW 1.6 3.2 0.00 11.5
Stazione meteo Velletri – Centro 380 m s.l.m.
IVELLE14 Stazione meteo Velletri – San Clemente 335 m s.l.m. 2019-10-16 07:25:06 14.9 14.8 16.3 94 1017.20 1.1 E 3.6 12.2 0.00 13.9
IVELLE17 Stazione meteo Velletri – Appia Sud 142 m s.l.m. 2019-10-16 07:24:52 13.9 13.9 17.0 99 1016.73 0.3 ENE 1.8 1.8 0.00 13.7
IVELLETR18 Stazione meteo Velletri – Fontana Fiume 512 m s.l.m. 2019-10-16 07:24:15 12.7 12.6 15.8 96 1020.99 3.6 N 6.1 8.6 0.30 12.1
ILAZIOLA23 Stazione meteo Lariano – Centro 370 m s.l.m. 2019-10-16 07:24:52 13.9 13.9 16.5 99 1014.56 0.0 WSW 0.0 11.9 0.00 13.8
ILAZIOMA6 Stazione meteo Artena – Macere 345 m s.l.m. 2019-10-16 07:24:22 12.7 12.7 15.7 99 1019.17 0.0 0.0 9.7 0.25 12.6
ILAZIOPO4 Stazione meteo Pomezia – Via Federico Fellini 78 m s.l.m. 2019-10-16 07:24:10 15.3 15.3 17.8 92 1014.70 6.4 SE 6.4 9.7 0.20 14.0
Stazione meteo Rocca di Papa – Monte Faete 970 m s.l.m.
IALLUMIE2 Stazione meteo Allumiere – Loc. La Bianca 503 m s.l.m. 2019-10-16 07:24:41 13.8 13.6 15.4 99 1013.50 8.6 ESE 12.2 29.5 0.00 13.7
Provincia di Viterbo
ID Località Altitudine Data Temp (°C) Temp Min (°C) Temp Max (°C) Hum (%) Pressure (hPa) Wind (Km/h) Wind Dir Wind Gust (Km/h) Wind Gust Max (Km/h) Rain (mm) Dewpoint (°C)
INEPI3 Stazione meteo Nepi – Via Umiltà 216 m s.l.m. 2019-10-16 07:24:57 10.1 10.0 16.3 99 1016.42 0.0 NE 0.0 16.6 0.00 9.9
IVITERBO7 Stazione meteo Marta – Via Laertina 320 m s.l.m. 2019-10-16 07:24:53 15.1 13.3 16.4 92 1016.00 4.3 NE 4.3 19.1 0.00 13.8
ILAZIOVI8 Stazione meteo San Lorenzo Nuovo – Piazza Europa 519 m s.l.m. 2019-10-16 07:24:29 11.8 11.8 15.6 95 1015.40 4.3 NNE 4.3 27.0 0.00 11.0